Time;durP1;ratioP1;P1;durP2;ratioP2;P2;SDS_P1;SDS_P2;PMS_P1;PMS_P2;Temp;Humidity;BMP_temperature;BMP_pressure;BME280_temperature;BME280_humidity;BME280_pressure;Samples;Min_cycle;Max_cycle;Signal;HPM_P1;HPM_P2
2020/12/20 00:01:59;;;;;;;4.53;2.50;;;;;;;13.41;57.88;101444.94;5049230;28;20052;-70
2020/12/20 00:04:24;;;;;;;6.00;2.80;;;;;;;13.57;56.96;101444.72;5044848;28;20037;-70
2020/12/20 00:06:50;;;;;;;10.13;3.25;;;;;;;13.81;56.25;101448.72;5047412;28;20034;-70
2020/12/20 00:09:21;;;;;;;4.13;2.03;;;;;;;13.79;56.21;101451.31;5047391;28;20041;-71
2020/12/20 00:11:52;;;;;;;6.38;2.45;;;;;;;13.65;56.66;101453.28;5046108;28;20655;-70
2020/12/20 00:14:27;;;;;;;7.85;2.47;;;;;;;13.79;56.27;101466.91;5050059;28;20037;-71
2020/12/20 00:17:07;;;;;;;3.90;2.35;;;;;;;13.79;56.05;101459.13;5048326;28;20045;-70
2020/12/20 00:19:33;;;;;;;2.90;2.60;;;;;;;13.65;56.44;101453.28;5032226;28;20481;-71
2020/12/20 00:22:07;;;;;;;5.60;2.60;;;;;;;13.77;56.07;101458.28;5040428;28;20090;-71
2020/12/20 00:24:32;;;;;;;4.28;2.45;;;;;;;13.47;57.25;101460.44;5043971;28;20032;-71
2020/12/20 00:26:59;;;;;;;5.03;2.83;;;;;;;13.63;56.85;101462.81;5045018;28;20060;-70
2020/12/20 00:29:26;;;;;;;6.38;4.07;;;;;;;13.62;56.58;101454.19;5048611;28;20101;-71
2020/12/20 00:31:52;;;;;;;4.95;2.90;;;;;;;13.66;56.64;101454.97;5047105;28;20054;-71
2020/12/20 00:34:19;;;;;;;5.20;2.72;;;;;;;13.74;56.26;101468.72;5030585;28;20044;-70
2020/12/20 00:36:46;;;;;;;4.13;2.95;;;;;;;13.52;56.76;101465.56;5044342;28;20044;-71
2020/12/20 00:39:13;;;;;;;3.88;3.00;;;;;;;13.42;57.17;101466.59;5046612;28;20063;-71
2020/12/20 00:41:40;;;;;;;4.47;2.50;;;;;;;13.38;57.64;101464.91;5043373;28;20031;-71
2020/12/20 00:44:05;;;;;;;5.38;2.97;;;;;;;13.57;57.10;101465.50;5043003;28;20106;-70
2020/12/20 00:46:34;;;;;;;4.60;3.15;;;;;;;13.65;56.62;101466.25;5045060;28;20079;-71
2020/12/20 00:49:00;;;;;;;5.22;2.90;;;;;;;13.62;57.16;101463.69;5048928;28;20048;-70
2020/12/20 00:51:25;;;;;;;5.85;2.80;;;;;;;13.77;56.56;101460.03;5049284;28;20029;-70
2020/12/20 00:53:51;;;;;;;12.82;3.50;;;;;;;13.61;57.10;101469.78;5047788;28;20032;-71
2020/12/20 00:56:17;;;;;;;4.97;3.17;;;;;;;13.50;57.48;101464.72;5049458;28;20052;-70
2020/12/20 00:58:43;;;;;;;5.75;2.78;;;;;;;13.73;56.88;101455.75;5031276;28;20025;-71
2020/12/20 01:01:10;;;;;;;6.47;3.50;;;;;;;13.74;57.00;101452.28;5035017;28;20033;-70
2020/12/20 01:03:37;;;;;;;5.72;2.65;;;;;;;13.70;57.21;101457.50;5043900;28;20124;-71
2020/12/20 01:06:03;;;;;;;8.90;3.25;;;;;;;13.42;57.74;101451.00;5048439;28;20052;-70
2020/12/20 01:08:30;;;;;;;4.97;3.65;;;;;;;13.81;56.62;101461.69;5045081;28;20037;-70
2020/12/20 01:10:56;;;;;;;7.38;3.47;;;;;;;13.89;56.37;101463.31;5035517;28;20429;-71
2020/12/20 01:13:21;;;;;;;7.15;3.00;;;;;;;13.97;56.32;101464.91;5050623;28;20033;-70
2020/12/20 01:15:49;;;;;;;6.18;3.13;;;;;;;13.79;56.74;101460.84;5035584;28;20037;-70
2020/12/20 01:18:16;;;;;;;9.43;2.72;;;;;;;13.69;57.14;101460.16;5037226;28;20041;-71
2020/12/20 01:20:42;;;;;;;5.72;3.00;;;;;;;13.81;56.94;101469.50;5044070;28;20037;-70
2020/12/20 01:23:07;;;;;;;3.60;2.38;;;;;;;13.81;56.79;101475.53;5051279;28;20035;-71
2020/12/20 01:25:34;;;;;;;10.23;3.15;;;;;;;13.84;56.67;101479.84;5045260;28;20036;-70
2020/12/20 01:28:13;;;;;;;7.05;2.50;;;;;;;13.82;56.69;101479.88;5046174;28;20035;-70
2020/12/20 01:30:41;;;;;;;4.70;3.08;;;;;;;13.98;56.36;101479.66;5044586;28;20090;-70
2020/12/20 01:33:07;;;;;;;7.03;2.47;;;;;;;14.02;56.28;101481.28;5037782;28;20048;-71
2020/12/20 01:35:41;;;;;;;4.38;2.03;;;;;;;13.98;56.31;101483.09;5047561;28;20117;-70
2020/12/20 01:38:07;;;;;;;5.88;2.78;;;;;;;13.88;56.07;101484.97;5050899;28;20045;-71
2020/12/20 01:40:34;;;;;;;9.73;2.45;;;;;;;13.61;57.21;101485.38;5029207;28;20037;-70
2020/12/20 01:42:59;;;;;;;6.20;2.90;;;;;;;13.79;56.28;101487.69;5048282;28;20033;-70
2020/12/20 01:45:30;;;;;;;7.32;3.05;;;;;;;13.76;56.74;101489.50;5044193;28;20033;-72
2020/12/20 01:47:56;;;;;;;7.63;2.42;;;;;;;13.57;57.51;101486.28;5048428;28;20036;-69
2020/12/20 01:50:22;;;;;;;4.72;2.42;;;;;;;13.82;56.13;101482.47;5033241;28;20037;-71
2020/12/20 01:52:52;;;;;;;8.55;2.80;;;;;;;13.67;56.80;101480.09;5048045;28;20041;-71
2020/12/20 01:55:23;;;;;;;5.93;3.38;;;;;;;13.67;57.01;101486.13;5047643;28;20040;-72
2020/12/20 01:58:01;;;;;;;7.50;3.38;;;;;;;13.75;56.79;101491.22;5048094;28;20029;-71
2020/12/20 02:00:38;;;;;;;4.43;2.78;;;;;;;13.76;56.57;101494.69;5031608;28;20036;-70
2020/12/20 02:03:30;;;;;;;7.97;3.05;;;;;;;13.60;56.92;101483.66;5047030;28;20037;-70
2020/12/20 02:05:58;;;;;;;7.78;3.22;;;;;;;13.83;56.50;101484.19;5035806;28;20057;-71
2020/12/20 02:08:28;;;;;;;8.98;2.58;;;;;;;13.80;56.60;101478.19;5045611;28;20029;-70
2020/12/20 02:11:17;;;;;;;4.90;3.05;;;;;;;13.80;56.26;101473.84;5035493;28;20049;-70
2020/12/20 02:13:50;;;;;;;7.32;3.05;;;;;;;13.60;57.22;101471.53;5046310;28;20040;-70
2020/12/20 02:16:20;;;;;;;6.13;3.08;;;;;;;13.80;56.38;101468.66;5046763;28;20045;-70
2020/12/20 02:18:47;;;;;;;6.30;3.75;;;;;;;13.79;56.53;101464.31;5030861;28;20029;-71
2020/12/20 02:21:19;;;;;;;10.07;3.35;;;;;;;13.75;56.23;101467.84;5046670;28;20029;-70
2020/12/20 02:23:50;;;;;;;7.57;3.33;;;;;;;13.70;56.63;101467.03;5030520;28;20032;-70
2020/12/20 02:26:22;;;;;;;4.18;2.50;;;;;;;13.56;56.68;101475.03;5044285;28;20043;-70
2020/12/20 02:28:50;;;;;;;7.15;2.88;;;;;;;13.59;56.38;101476.72;5045465;28;20731;-70
2020/12/20 02:31:20;;;;;;;8.10;3.57;;;;;;;13.53;57.11;101469.91;5033817;28;20479;-70
2020/12/20 02:33:46;;;;;;;7.40;3.55;;;;;;;13.47;57.30;101462.19;5043920;28;20272;-71
2020/12/20 02:36:13;;;;;;;12.73;4.03;;;;;;;13.50;56.93;101460.38;5032211;28;20111;-70
2020/12/20 02:38:42;;;;;;;5.03;3.25;;;;;;;13.52;56.94;101456.91;5044699;28;20048;-70
2020/12/20 02:41:35;;;;;;;9.25;3.58;;;;;;;13.48;56.78;101451.78;5045040;28;20041;-70
2020/12/20 02:44:03;;;;;;;6.25;2.58;;;;;;;13.42;57.15;101459.66;5046744;28;20029;-70
2020/12/20 02:46:30;;;;;;;4.78;3.15;;;;;;;13.40;57.90;101464.00;5034184;28;20033;-70
2020/12/20 02:49:04;;;;;;;7.03;3.08;;;;;;;13.57;57.01;101455.13;5046844;28;20064;-70
2020/12/20 02:51:37;;;;;;;9.40;3.33;;;;;;;13.56;57.24;101456.00;5029925;28;20044;-70
2020/12/20 02:54:03;;;;;;;8.57;3.80;;;;;;;13.55;57.02;101454.28;5045401;28;20021;-70
2020/12/20 02:56:45;;;;;;;6.05;3.65;;;;;;;13.28;57.62;101456.34;5048162;28;20024;-71
2020/12/20 02:59:20;;;;;;;6.40;3.33;;;;;;;13.34;57.70;101448.50;5047609;28;20067;-71
2020/12/20 03:01:46;;;;;;;12.95;4.00;;;;;;;13.43;56.99;101453.56;5042522;28;20041;-70
2020/12/20 03:04:12;;;;;;;11.50;3.53;;;;;;;13.50;56.60;101450.00;5041536;28;20029;-70
2020/12/20 03:06:39;;;;;;;9.80;4.75;;;;;;;13.33;57.04;101451.09;5031685;28;20025;-71
2020/12/20 03:09:06;;;;;;;5.10;3.60;;;;;;;13.24;57.49;101457.25;5036093;28;20086;-70
2020/12/20 03:11:33;;;;;;;7.50;4.20;;;;;;;13.08;57.89;101460.03;5047400;28;20040;-70
2020/12/20 03:13:59;;;;;;;8.35;4.47;;;;;;;13.19;57.99;101461.63;5046789;28;20021;-70
2020/12/20 03:16:26;;;;;;;6.68;4.50;;;;;;;13.06;58.38;101454.00;5044921;28;20110;-71
2020/12/20 03:18:52;;;;;;;5.95;4.32;;;;;;;13.20;57.66;101455.56;5045493;28;20557;-71
2020/12/20 03:21:21;;;;;;;9.93;5.05;;;;;;;13.13;58.01;101459.09;5046195;28;20029;-72
2020/12/20 03:24:05;;;;;;;13.82;4.93;;;;;;;13.20;57.74;101465.97;5047416;28;20047;-71
2020/12/20 03:26:49;;;;;;;6.45;3.90;;;;;;;13.18;57.71;101465.97;5046444;28;20033;-71
2020/12/20 03:29:32;;;;;;;6.15;3.90;;;;;;;13.13;57.35;101469.47;5043058;28;20059;-72
2020/12/20 03:32:34;;;;;;;6.07;4.13;;;;;;;13.15;57.38;101457.34;5042865;28;20033;-72
2020/12/20 03:35:18;;;;;;;12.18;4.75;;;;;;;13.12;57.67;101468.63;5046036;28;20053;-71
2020/12/20 03:37:53;;;;;;;6.55;4.43;;;;;;;13.15;57.25;101470.31;5045964;28;20033;-72
2020/12/20 03:40:24;;;;;;;9.32;5.00;;;;;;;12.93;59.06;101468.00;5046584;28;20029;-71
2020/12/20 03:42:50;;;;;;;8.05;4.38;;;;;;;13.24;57.65;101463.31;5029528;28;20153;-71
2020/12/20 03:45:18;;;;;;;8.65;4.57;;;;;;;13.29;57.33;101458.94;5048909;28;20175;-72
2020/12/20 03:47:45;;;;;;;10.40;4.85;;;;;;;13.28;58.13;101462.44;5044261;28;20057;-72
2020/12/20 03:50:11;;;;;;;9.02;5.45;;;;;;;13.24;58.36;101459.84;5030247;28;20051;-72
2020/12/20 03:52:37;;;;;;;12.50;5.32;;;;;;;13.11;58.76;101456.53;5026751;28;20047;-71
2020/12/20 03:55:17;;;;;;;9.02;5.30;;;;;;;13.38;57.56;101460.56;5035178;28;20052;-72
2020/12/20 03:57:44;;;;;;;10.60;5.55;;;;;;;13.29;58.41;101465.88;5030720;28;20060;-72
2020/12/20 04:00:11;;;;;;;9.65;5.05;;;;;;;13.48;57.46;101469.97;5044645;28;20031;-71
2020/12/20 04:02:51;;;;;;;10.40;4.97;;;;;;;13.24;58.32;101470.25;5044539;28;20119;-71
2020/12/20 04:05:23;;;;;;;9.55;4.75;;;;;;;13.32;58.27;101473.63;5046256;28;20066;-71
2020/12/20 04:07:49;;;;;;;8.55;5.32;;;;;;;13.32;58.64;101468.41;5029338;28;20036;-71
2020/12/20 04:10:15;;;;;;;11.50;5.82;;;;;;;13.52;57.50;101472.50;5044348;28;20170;-71
2020/12/20 04:12:41;;;;;;;10.55;4.60;;;;;;;13.56;57.74;101479.38;5042569;28;20069;-71
2020/12/20 04:15:07;;;;;;;9.23;4.70;;;;;;;13.53;57.80;101476.81;5032813;28;20024;-71
2020/12/20 04:17:33;;;;;;;9.95;4.30;;;;;;;13.59;57.50;101468.94;5041303;28;20047;-71
2020/12/20 04:19:59;;;;;;;9.88;4.78;;;;;;;13.67;57.07;101474.91;5042380;28;20037;-71
2020/12/20 04:22:44;;;;;;;7.97;4.50;;;;;;;13.55;58.08;101472.44;5042303;28;20053;-71
2020/12/20 04:25:42;;;;;;;8.18;5.35;;;;;;;13.47;57.91;101470.81;5035060;28;20049;-71
2020/12/20 04:28:36;;;;;;;8.45;4.03;;;;;;;13.53;57.78;101474.22;5034526;28;20041;-71
2020/12/20 04:31:20;;;;;;;9.13;4.30;;;;;;;13.61;57.58;101474.97;5037411;28;20044;-71
2020/12/20 04:33:46;;;;;;;5.32;3.70;;;;;;;13.52;58.46;101475.09;5043193;28;20101;-71
2020/12/20 04:36:18;;;;;;;;;;;;;;;13.63;57.82;101476.66;5046578;28;20052;-71
2020/12/20 04:38:45;;;;;;;6.35;3.25;;;;;;;13.65;57.62;101468.84;5035916;28;20282;-71
2020/12/20 04:41:13;;;;;;;6.18;4.15;;;;;;;13.72;57.38;101475.69;5046778;28;20029;-73
2020/12/20 04:43:43;;;;;;;9.45;4.20;;;;;;;13.61;57.86;101469.78;5044711;28;20029;-71
2020/12/20 04:46:10;;;;;;;6.45;3.55;;;;;;;13.62;57.49;101471.47;5033633;28;20055;-71
2020/12/20 04:48:56;;;;;;;6.07;3.88;;;;;;;13.74;56.96;101467.88;5045827;28;20053;-71
2020/12/20 04:51:24;;;;;;;8.77;3.97;;;;;;;13.34;58.66;101466.66;5051133;28;20025;-73
2020/12/20 04:53:52;;;;;;;9.52;3.47;;;;;;;13.64;57.78;101474.91;5044787;28;20557;-71
2020/12/20 04:56:27;;;;;;;9.25;3.53;;;;;;;13.49;58.16;101468.22;5034414;28;20079;-71
2020/12/20 04:59:01;;;;;;;8.35;3.58;;;;;;;13.82;56.94;101471.19;5052859;28;20547;-71
2020/12/20 05:01:33;;;;;;;6.75;3.60;;;;;;;13.68;57.38;101479.19;5047242;28;20071;-71
2020/12/20 05:03:59;;;;;;;6.82;3.35;;;;;;;13.67;57.46;101472.28;5038204;28;20697;-72
2020/12/20 05:06:29;;;;;;;6.07;3.42;;;;;;;13.64;57.69;101474.91;5049763;28;20152;-72
2020/12/20 05:09:03;;;;;;;5.97;3.03;;;;;;;13.49;57.56;101469.06;5034608;28;20558;-71
2020/12/20 05:11:44;;;;;;;8.95;3.65;;;;;;;13.69;57.36;101465.34;5035591;28;20054;-71
2020/12/20 05:14:16;;;;;;;8.70;3.50;;;;;;;13.76;57.10;101473.91;5048363;28;20029;-72
2020/12/20 05:16:58;;;;;;;6.20;3.28;;;;;;;13.84;56.92;101465.13;5048337;28;20091;-70
2020/12/20 05:19:31;;;;;;;4.72;3.45;;;;;;;13.90;56.55;101474.56;5038083;28;20041;-70
2020/12/20 05:22:17;;;;;;;6.25;2.78;;;;;;;13.81;56.98;101467.75;5049359;28;20025;-70
2020/12/20 05:24:48;;;;;;;5.45;2.90;;;;;;;13.94;57.00;101472.78;5067443;28;20030;-70
2020/12/20 05:27:22;;;;;;;4.60;2.08;;;;;;;13.98;56.28;101461.47;5031413;28;20568;-71
2020/12/20 05:29:51;;;;;;;8.02;3.38;;;;;;;13.79;57.36;101468.66;5045798;28;20136;-71
2020/12/20 05:32:31;;;;;;;6.30;2.95;;;;;;;13.78;57.11;101470.41;5036553;28;20033;-70
2020/12/20 05:35:07;;;;;;;9.27;2.83;;;;;;;13.78;57.78;101475.59;5069951;28;20103;-71
2020/12/20 05:37:34;;;;;;;5.75;2.75;;;;;;;13.95;56.91;101477.06;5031167;28;20037;-73
2020/12/20 05:40:32;;;;;;;4.53;2.25;;;;;;;13.63;57.99;101479.25;5043831;28;20021;-73
2020/12/20 05:43:05;;;;;;;3.80;2.80;;;;;;;13.89;57.02;101489.28;5043906;28;20049;-71
2020/12/20 05:45:37;;;;;;;8.80;3.60;;;;;;;13.94;56.89;101484.03;5048604;28;20029;-71
2020/12/20 05:48:15;;;;;;;11.82;3.28;;;;;;;13.98;56.60;101484.84;5037664;28;20048;-70
2020/12/20 05:50:57;;;;;;;7.32;2.80;;;;;;;13.97;56.39;101480.50;5040889;28;20029;-71
2020/12/20 05:53:28;;;;;;;5.82;3.20;;;;;;;13.99;56.76;101487.41;5035988;28;20029;-74
2020/12/20 05:55:55;;;;;;;5.68;3.65;;;;;;;13.78;57.44;101487.75;5047522;28;20567;-72
2020/12/20 05:58:21;;;;;;;14.52;3.25;;;;;;;13.65;57.44;101500.03;5050872;28;20037;-70
2020/12/20 06:00:48;;;;;;;8.52;3.78;;;;;;;14.03;56.55;101501.22;5048685;28;20033;-72
2020/12/20 06:03:14;;;;;;;5.57;3.60;;;;;;;13.94;57.25;101496.16;5044383;28;20090;-70
2020/12/20 06:05:45;;;;;;;6.55;3.20;;;;;;;13.91;56.87;101492.72;5046024;28;20036;-70
2020/12/20 06:08:13;;;;;;;4.95;3.38;;;;;;;14.05;56.25;101492.50;5049988;28;20541;-71
2020/12/20 06:10:46;;;;;;;12.10;3.85;;;;;;;14.09;56.13;101495.94;5048788;28;20102;-71
2020/12/20 06:13:17;;;;;;;5.85;3.20;;;;;;;14.15;56.05;101495.81;5069219;28;20058;-72
2020/12/20 06:15:43;;;;;;;4.40;3.53;;;;;;;14.08;55.93;101496.81;5043125;28;20029;-70
2020/12/20 06:18:15;;;;;;;6.07;2.78;;;;;;;14.04;56.11;101489.94;5049853;28;20060;-70
2020/12/20 06:20:51;;;;;;;9.23;4.03;;;;;;;13.87;56.81;101496.25;5046399;28;20116;-72
2020/12/20 06:23:19;;;;;;;12.23;3.05;;;;;;;13.64;57.54;101500.91;5069445;28;20128;-71
2020/12/20 06:25:46;;;;;;;6.70;3.30;;;;;;;13.96;56.07;101494.41;5043969;28;20061;-70
2020/12/20 06:28:16;;;;;;;7.22;3.78;;;;;;;13.93;56.24;101504.81;5033913;28;20028;-70
2020/12/20 06:30:43;;;;;;;8.48;3.78;;;;;;;13.91;56.25;101503.13;5058590;28;20066;-70
2020/12/20 06:33:17;;;;;;;6.68;3.97;;;;;;;13.98;56.01;101508.25;5035779;28;20060;-70
2020/12/20 06:35:49;;;;;;;8.90;3.30;;;;;;;13.78;56.67;101511.13;5033468;28;20052;-71
2020/12/20 06:38:18;;;;;;;7.50;3.92;;;;;;;13.82;56.77;101508.47;5064110;28;20559;-70
2020/12/20 06:40:44;;;;;;;6.82;3.83;;;;;;;13.90;56.52;101510.94;5041918;28;20049;-71
2020/12/20 06:43:10;;;;;;;8.80;5.70;;;;;;;13.91;56.34;101512.66;5045007;28;20028;-71
2020/12/20 06:45:41;;;;;;;10.10;3.03;;;;;;;13.92;56.10;101503.97;5048349;28;20484;-70
2020/12/20 06:48:09;;;;;;;10.93;4.03;;;;;;;13.92;56.06;101503.97;5047850;28;20029;-70
2020/12/20 06:50:49;;;;;;;8.85;4.18;;;;;;;13.63;56.93;101512.19;5045089;28;20024;-70
2020/12/20 06:53:17;;;;;;;7.97;4.07;;;;;;;13.78;56.56;101516.31;5036967;28;20021;-70
2020/12/20 06:55:44;;;;;;;7.68;4.07;;;;;;;13.79;56.27;101512.81;5048281;28;20070;-70
2020/12/20 06:58:16;;;;;;;8.68;4.05;;;;;;;13.76;56.29;101505.94;5047898;28;20321;-70
2020/12/20 07:00:49;;;;;;;6.85;4.18;;;;;;;13.70;56.62;101517.25;5047733;28;20045;-70
2020/12/20 07:03:20;;;;;;;8.98;3.85;;;;;;;13.69;56.87;101525.09;5048321;28;20025;-70
2020/12/20 07:05:48;;;;;;;8.82;3.92;;;;;;;13.73;56.84;101518.97;5044105;28;20055;-71
2020/12/20 07:08:25;;;;;;;7.85;4.55;;;;;;;13.59;57.27;101519.13;5050213;28;20116;-70
2020/12/20 07:10:53;;;;;;;9.63;4.20;;;;;;;13.65;56.49;101520.81;5051208;28;20056;-72
2020/12/20 07:13:42;;;;;;;10.98;5.38;;;;;;;13.68;56.68;101512.97;5048786;28;20045;-71
2020/12/20 07:16:15;;;;;;;9.25;4.85;;;;;;;13.51;57.43;101510.59;5047834;28;20052;-72
2020/12/20 07:18:43;;;;;;;12.15;5.53;;;;;;;13.62;57.16;101505.25;5049296;28;20049;-72
2020/12/20 07:21:33;;;;;;;12.90;5.60;;;;;;;13.62;57.19;101511.31;5046939;28;20049;-71
2020/12/20 07:24:19;;;;;;;8.38;4.57;;;;;;;13.66;56.75;101519.91;5050064;28;20037;-71
2020/12/20 07:26:50;;;;;;;8.20;4.80;;;;;;;13.67;56.80;101524.25;5047327;28;20025;-71
2020/12/20 07:29:16;;;;;;;13.20;4.75;;;;;;;13.63;56.94;101519.97;5037114;28;20033;-71
2020/12/20 07:31:43;;;;;;;16.88;5.97;;;;;;;13.66;56.77;101526.00;5042353;28;20483;-70
2020/12/20 07:34:08;;;;;;;10.30;5.25;;;;;;;13.70;56.66;101526.78;5029503;28;20037;-70
2020/12/20 07:36:35;;;;;;;8.55;4.90;;;;;;;13.72;56.38;101537.19;5046260;28;20033;-70
2020/12/20 07:39:03;;;;;;;11.57;5.25;;;;;;;13.71;56.66;101533.72;5050267;28;20037;-70
2020/12/20 07:41:29;;;;;;;14.20;5.65;;;;;;;13.61;57.06;101530.38;5045936;28;20068;-70
2020/12/20 07:43:55;;;;;;;8.98;5.60;;;;;;;13.72;56.68;101532.84;5047413;28;20033;-70
2020/12/20 07:46:22;;;;;;;9.30;5.30;;;;;;;13.71;56.70;101536.31;5042905;28;20036;-69
2020/12/20 07:48:48;;;;;;;11.65;5.18;;;;;;;13.71;56.88;101538.94;5047853;28;20049;-70
2020/12/20 07:51:20;;;;;;;6.80;5.10;;;;;;;13.63;57.05;101543.34;5050453;28;20041;-70
2020/12/20 07:53:56;;;;;;;8.35;5.07;;;;;;;13.70;57.28;101555.38;5041306;28;20025;-70
2020/12/20 07:56:32;;;;;;;11.02;5.50;;;;;;;13.73;57.09;101560.56;5048597;28;20036;-71
2020/12/20 07:59:27;;;;;;;10.43;4.55;;;;;;;13.48;57.38;101554.78;5047330;28;20133;-70
2020/12/20 08:01:53;;;;;;;8.65;5.05;;;;;;;13.50;57.86;101558.22;5025236;28;20064;-71
2020/12/20 08:04:20;;;;;;;13.50;5.32;;;;;;;13.74;57.09;101557.06;5047714;28;20033;-70
2020/12/20 08:06:46;;;;;;;10.50;5.55;;;;;;;13.95;56.29;101565.44;5044542;28;20068;-70
2020/12/20 08:09:18;;;;;;;8.32;5.38;;;;;;;13.85;56.38;101568.16;5030427;28;20029;-71
2020/12/20 08:11:45;;;;;;;8.63;4.72;;;;;;;13.98;56.17;101565.41;5063917;28;20029;-71
2020/12/20 08:14:13;;;;;;;8.38;5.13;;;;;;;13.90;56.23;101558.56;5029680;28;20067;-70
2020/12/20 08:16:41;;;;;;;8.77;4.90;;;;;;;13.88;56.76;101562.91;5043954;28;20032;-70
2020/12/20 08:19:09;;;;;;;14.15;5.75;;;;;;;13.95;56.20;101568.03;5044788;28;20490;-70
2020/12/20 08:21:53;;;;;;;9.20;4.97;;;;;;;14.10;55.93;101570.44;5039773;28;20040;-70
2020/12/20 08:24:21;;;;;;;10.00;4.95;;;;;;;14.22;55.87;101570.25;5041778;28;20101;-70
2020/12/20 08:26:47;;;;;;;13.27;6.32;;;;;;;13.75;56.94;101566.56;5042957;28;20048;-70
2020/12/20 08:29:17;;;;;;;10.32;6.15;;;;;;;14.28;55.71;101570.16;5031095;28;20013;-71
2020/12/20 08:31:43;;;;;;;10.32;5.28;;;;;;;14.18;55.52;101571.19;5047674;28;20082;-70
2020/12/20 08:34:22;;;;;;;8.95;5.00;;;;;;;14.23;55.72;101568.53;5033593;28;20029;-70
2020/12/20 08:36:52;;;;;;;12.95;5.13;;;;;;;14.25;55.64;101565.00;5045122;28;20526;-71
2020/12/20 08:39:24;;;;;;;7.70;4.13;;;;;;;14.23;55.95;101568.53;5046470;28;20037;-71
2020/12/20 08:42:08;;;;;;;9.68;5.32;;;;;;;14.34;55.31;101564.00;5045315;28;20514;-71
2020/12/20 08:44:34;;;;;;;9.20;4.57;;;;;;;14.21;55.80;101562.47;5030525;28;20051;-71
2020/12/20 08:47:17;;;;;;;9.38;4.40;;;;;;;14.44;55.49;101564.72;5042521;28;20032;-71
2020/12/20 08:49:59;;;;;;;9.65;4.93;;;;;;;14.37;55.25;101561.34;5051376;28;20033;-71
2020/12/20 08:52:29;;;;;;;7.75;4.22;;;;;;;14.59;54.84;101556.69;5044918;28;20040;-71
2020/12/20 08:54:56;;;;;;;9.05;4.55;;;;;;;14.06;56.91;101556.59;5046388;28;20059;-70
2020/12/20 08:57:28;;;;;;;11.85;5.13;;;;;;;14.57;54.93;101561.06;5047499;28;20033;-69
2020/12/20 08:59:54;;;;;;;8.10;5.20;;;;;;;14.44;55.34;101564.72;5056055;28;20113;-70
2020/12/20 09:02:25;;;;;;;11.38;5.18;;;;;;;14.70;54.74;101559.97;5040157;28;20033;-70
2020/12/20 09:05:10;;;;;;;13.93;6.82;;;;;;;14.72;54.77;101566.03;5031659;28;20029;-71
2020/12/20 09:07:46;;;;;;;8.65;4.35;;;;;;;14.36;55.39;101567.44;5044654;28;20033;-70
2020/12/20 09:10:13;;;;;;;10.00;4.15;;;;;;;14.35;55.13;101567.47;5045703;28;20467;-70
2020/12/20 09:12:53;;;;;;;7.47;4.35;;;;;;;14.74;54.36;101572.06;5044200;28;20041;-71
2020/12/20 09:15:30;;;;;;;9.98;5.03;;;;;;;14.57;55.47;101576.66;5043263;28;20044;-71
2020/12/20 09:17:57;;;;;;;10.10;4.68;;;;;;;14.84;53.99;101574.50;5025764;28;20091;-70
2020/12/20 09:20:25;;;;;;;8.48;4.10;;;;;;;14.71;54.90;101581.66;5048980;28;20044;-71
2020/12/20 09:22:59;;;;;;;13.45;5.82;;;;;;;14.87;54.64;101584.84;5040095;28;20036;-71
2020/12/20 09:25:34;;;;;;;10.93;5.03;;;;;;;15.15;53.83;101585.22;5046836;28;20041;-71
2020/12/20 09:28:08;;;;;;;10.43;5.53;;;;;;;15.11;53.75;101597.47;5044710;28;20052;-70
2020/12/20 09:30:35;;;;;;;10.93;4.40;;;;;;;15.19;53.66;101591.25;5042276;28;20391;-72
2020/12/20 09:33:00;;;;;;;8.90;5.13;;;;;;;15.58;52.37;101586.97;5049180;28;20387;-70
2020/12/20 09:35:26;;;;;;;8.95;4.82;;;;;;;15.32;52.66;101588.38;5046994;28;20040;-70
2020/12/20 09:37:53;;;;;;;9.07;5.43;;;;;;;15.41;52.91;101584.72;5039727;28;20044;-72
2020/12/20 09:40:19;;;;;;;7.45;4.65;;;;;;;15.75;52.63;101584.94;5044023;28;20486;-70
2020/12/20 09:42:45;;;;;;;6.25;4.57;;;;;;;16.02;51.58;101574.81;5042792;28;20041;-70
2020/12/20 09:45:12;;;;;;;6.40;4.00;;;;;;;15.61;52.95;101586.09;5047103;28;20750;-70
2020/12/20 09:47:44;;;;;;;8.77;4.80;;;;;;;16.00;51.78;101587.00;5044861;28;20112;-71
2020/12/20 09:50:11;;;;;;;10.43;5.05;;;;;;;15.84;51.99;101581.28;5047249;28;20541;-71
2020/12/20 09:52:38;;;;;;;10.10;4.28;;;;;;;15.76;52.16;101577.97;5044106;28;20039;-70
2020/12/20 09:55:07;;;;;;;10.27;4.30;;;;;;;15.96;51.60;101577.53;5044987;28;20497;-70
2020/12/20 09:57:33;;;;;;;10.75;5.07;;;;;;;15.88;52.43;101572.50;5044755;28;20037;-71
2020/12/20 09:59:59;;;;;;;8.45;4.95;;;;;;;15.76;52.30;101583.16;5041540;28;20037;-70
2020/12/20 10:02:25;;;;;;;11.77;4.40;;;;;;;15.60;52.65;101584.34;5043372;28;20094;-70
2020/12/20 10:04:51;;;;;;;8.05;4.22;;;;;;;16.29;51.28;101585.50;5043532;28;20052;-70
2020/12/20 10:07:16;;;;;;;6.07;3.58;;;;;;;15.92;52.24;101581.13;5045069;28;20035;-70
2020/12/20 10:09:42;;;;;;;10.52;4.55;;;;;;;15.76;52.31;101575.34;5043821;28;20021;-70
2020/12/20 10:12:08;;;;;;;7.15;3.83;;;;;;;15.25;53.45;101570.28;5043017;28;20037;-70
2020/12/20 10:14:34;;;;;;;9.02;3.90;;;;;;;15.92;52.56;101568.09;5045735;28;20060;-70
2020/12/20 10:17:00;;;;;;;10.95;5.20;;;;;;;15.98;51.70;101571.41;5042592;28;20076;-70
2020/12/20 10:19:26;;;;;;;12.25;4.88;;;;;;;15.62;52.89;101572.16;5044674;28;20108;-72
2020/12/20 10:21:52;;;;;;;10.88;4.63;;;;;;;15.96;51.98;101570.59;5026602;28;20029;-70
2020/12/20 10:24:20;;;;;;;8.63;3.70;;;;;;;15.65;52.66;101565.16;5043668;28;20037;-70
2020/12/20 10:26:47;;;;;;;9.95;3.78;;;;;;;16.03;52.19;101565.22;5042762;28;20471;-71
2020/12/20 10:29:15;;;;;;;7.25;4.63;;;;;;;15.95;52.66;101563.66;5040739;28;20511;-70
2020/12/20 10:31:41;;;;;;;5.25;3.50;;;;;;;16.17;51.33;101566.63;5039079;28;20033;-70
2020/12/20 10:34:07;;;;;;;8.57;4.47;;;;;;;16.26;51.71;101568.16;5042945;28;20072;-71
2020/12/20 10:36:34;;;;;;;8.52;3.67;;;;;;;16.48;50.78;101572.88;5041456;28;20040;-70
2020/12/20 10:38:59;;;;;;;11.38;4.18;;;;;;;16.71;50.15;101575.78;5041739;28;20032;-70
2020/12/20 10:41:25;;;;;;;7.35;3.65;;;;;;;15.30;53.92;101573.66;5043881;28;20037;-70
2020/12/20 10:43:50;;;;;;;9.60;4.72;;;;;;;16.37;51.14;101581.81;5041306;28;20036;-70
2020/12/20 10:46:16;;;;;;;13.98;4.95;;;;;;;15.65;53.32;101569.47;5044616;28;20033;-70
2020/12/20 10:48:42;;;;;;;7.43;3.70;;;;;;;15.67;54.00;101571.19;5041293;28;20714;-70
2020/12/20 10:51:10;;;;;;;9.82;3.70;;;;;;;16.16;52.56;101577.09;5047022;28;20129;-70
2020/12/20 10:53:37;;;;;;;7.50;3.85;;;;;;;16.64;51.03;101574.22;5044245;28;20033;-70
2020/12/20 10:56:04;;;;;;;11.60;4.35;;;;;;;16.47;51.66;101573.75;5043022;28;20080;-70
2020/12/20 10:58:30;;;;;;;8.13;4.05;;;;;;;16.23;52.73;101572.59;5044601;28;20038;-71
2020/12/20 11:00:56;;;;;;;6.43;3.30;;;;;;;16.08;52.28;101574.66;5029852;28;20029;-71
2020/12/20 11:03:22;;;;;;;14.95;3.88;;;;;;;15.96;52.72;101578.41;5044392;28;20041;-71
2020/12/20 11:05:47;;;;;;;14.73;3.92;;;;;;;15.74;53.47;101577.16;5039663;28;20029;-70
2020/12/20 11:08:13;;;;;;;8.98;4.22;;;;;;;15.43;54.65;101579.50;5041947;28;20037;-70
2020/12/20 11:10:38;;;;;;;8.73;3.60;;;;;;;15.29;55.07;101566.72;5039477;28;20103;-71
2020/12/20 11:13:04;;;;;;;13.88;5.30;;;;;;;15.64;54.10;101573.00;5043570;28;20880;-70
2020/12/20 11:15:29;;;;;;;8.88;4.53;;;;;;;15.85;53.96;101562.16;5043053;28;20047;-70
2020/12/20 11:17:55;;;;;;;10.27;3.15;;;;;;;15.84;53.75;101564.78;5036594;28;20029;-71
2020/12/20 11:20:20;;;;;;;9.80;4.47;;;;;;;15.69;53.83;101558.97;5047664;28;20066;-72
2020/12/20 11:22:46;;;;;;;10.05;4.68;;;;;;;15.30;54.82;101558.88;5043090;28;20033;-69
2020/12/20 11:25:11;;;;;;;9.60;4.55;;;;;;;15.58;54.39;101560.94;5045597;28;20033;-72
2020/12/20 11:27:37;;;;;;;8.60;4.03;;;;;;;15.29;55.12;101551.09;5041794;28;20067;-72
2020/12/20 11:30:03;;;;;;;7.82;4.43;;;;;;;15.71;54.03;101561.56;5044431;28;20029;-71
2020/12/20 11:32:32;;;;;;;10.27;5.13;;;;;;;15.18;55.20;101559.13;5046745;28;20068;-72
2020/12/20 11:34:58;;;;;;;11.57;5.28;;;;;;;15.40;55.16;101556.94;5039122;28;20029;-70
2020/12/20 11:37:23;;;;;;;17.85;5.15;;;;;;;15.36;55.48;101557.94;5047477;28;20489;-72
2020/12/20 11:39:49;;;;;;;10.35;4.47;;;;;;;15.27;55.57;101555.47;5044912;28;20029;-70